Time;durP1;ratioP1;P1;durP2;ratioP2;P2;SDS_P1;SDS_P2;PMS_P1;PMS_P2;Temp;Humidity;BMP_temperature;BMP_pressure;BME280_temperature;BME280_humidity;BME280_pressure;Samples;Min_cycle;Max_cycle;Signal;HPM_P1;HPM_P2
2021/08/26 00:06:49;;;;;;;2.70;2.50;;;23.50;57.90;;;;;;5082517;28;20028;-36
2021/08/26 00:09:17;;;;;;;2.63;2.42;;;23.50;58.00;;;;;;5082176;28;20112;-36
2021/08/26 00:11:44;;;;;;;2.55;2.35;;;23.50;58.40;;;;;;5082038;28;20028;-36
2021/08/26 00:14:12;;;;;;;2.80;2.60;;;23.50;58.60;;;;;;5082132;28;20058;-36
2021/08/26 00:16:40;;;;;;;3.00;2.80;;;23.50;58.80;;;;;;5082211;28;20040;-36
2021/08/26 00:19:07;;;;;;;2.90;2.70;;;23.50;58.80;;;;;;5064494;28;20028;-35
2021/08/26 00:21:33;;;;;;;2.90;2.70;;;23.50;58.50;;;;;;5081863;28;20029;-36
2021/08/26 00:24:00;;;;;;;3.13;2.92;;;23.60;58.50;;;;;;5078297;28;20210;-35
2021/08/26 00:26:26;;;;;;;3.63;3.10;;;23.60;58.60;;;;;;5082362;28;20118;-36
2021/08/26 00:28:52;;;;;;;3.15;2.88;;;23.60;58.70;;;;;;5082286;28;20044;-36
2021/08/26 00:31:18;;;;;;;2.65;2.45;;;23.60;58.80;;;;;;5081714;28;20032;-35
2021/08/26 00:33:44;;;;;;;3.65;3.05;;;23.60;58.90;;;;;;5070336;28;20029;-36
2021/08/26 00:36:10;;;;;;;3.10;2.90;;;23.60;59.10;;;;;;5061879;28;20064;-36
2021/08/26 00:38:36;;;;;;;2.90;2.70;;;23.70;59.30;;;;;;5062161;28;20025;-35
2021/08/26 00:41:02;;;;;;;3.30;3.00;;;23.70;59.50;;;;;;5061644;28;20033;-35
2021/08/26 00:43:30;;;;;;;3.15;2.88;;;23.70;59.70;;;;;;5062034;28;20025;-35
2021/08/26 00:45:58;;;;;;;3.35;3.05;;;23.70;59.90;;;;;;5068658;28;20086;-35
2021/08/26 00:48:25;;;;;;;3.40;3.10;;;23.80;60.30;;;;;;5063364;28;20029;-38
2021/08/26 00:50:52;;;;;;;4.25;3.13;;;23.80;60.50;;;;;;5081642;28;20083;-36
2021/08/26 00:53:18;;;;;;;;;;;23.80;60.60;;;;;;5082424;28;20127;-36
2021/08/26 00:55:44;;;;;;;3.95;3.55;;;23.90;60.80;;;;;;5081633;28;20361;-36
2021/08/26 00:58:10;;;;;;;4.15;3.75;;;23.90;61.60;;;;;;5081869;28;20052;-36
2021/08/26 01:00:49;;;;;;;4.72;3.88;;;23.90;62.00;;;;;;5081668;28;20031;-35
2021/08/26 01:03:15;;;;;;;5.57;4.72;;;23.90;62.40;;;;;;5074041;28;20037;-36
2021/08/26 01:05:48;;;;;;;7.32;4.28;;;23.90;62.60;;;;;;5061693;28;20025;-39
2021/08/26 01:08:21;;;;;;;5.70;4.63;;;24.00;62.80;;;;;;5064369;28;20439;-36
2021/08/26 01:10:53;;;;;;;4.95;3.90;;;24.00;63.00;;;;;;5085310;28;20439;-36
2021/08/26 01:13:19;;;;;;;6.10;4.25;;;24.00;63.10;;;;;;5068050;28;20024;-36
2021/08/26 01:16:04;;;;;;;5.85;4.30;;;24.00;63.10;;;;;;5062019;28;20032;-36
2021/08/26 01:18:35;;;;;;;5.20;3.95;;;24.00;63.10;;;;;;5065168;28;20143;-36
2021/08/26 01:21:02;;;;;;;4.82;3.63;;;24.10;63.10;;;;;;5064821;28;20036;-36
2021/08/26 01:23:29;;;;;;;4.65;3.83;;;24.10;63.10;;;;;;5065308;28;20029;-36
2021/08/26 01:25:55;;;;;;;4.30;3.90;;;24.10;63.10;;;;;;5047131;28;20552;-36
2021/08/26 01:28:21;;;;;;;7.55;4.13;;;24.10;63.10;;;;;;5047268;28;20060;-36
2021/08/26 01:30:47;;;;;;;5.05;3.88;;;24.10;63.10;;;;;;5065153;28;20082;-36
2021/08/26 01:33:14;;;;;;;8.20;4.55;;;24.20;63.30;;;;;;5054369;28;20024;-36
2021/08/26 01:35:40;;;;;;;4.22;3.70;;;24.20;63.30;;;;;;5067164;28;20071;-37
2021/08/26 01:38:06;;;;;;;7.32;4.10;;;24.20;63.40;;;;;;5055877;28;20033;-36
2021/08/26 01:40:40;;;;;;;6.07;3.92;;;24.20;63.60;;;;;;5064949;28;20022;-36
2021/08/26 01:43:12;;;;;;;5.85;3.88;;;24.20;63.60;;;;;;5072231;28;20441;-36
2021/08/26 01:45:46;;;;;;;4.00;3.45;;;24.20;63.70;;;;;;5067279;28;20556;-37
2021/08/26 01:48:13;;;;;;;5.65;3.90;;;24.20;63.80;;;;;;5084604;28;20058;-37
2021/08/26 01:50:39;;;;;;;5.40;3.90;;;24.30;63.80;;;;;;5066628;28;20055;-37
2021/08/26 01:53:05;;;;;;;4.15;3.70;;;24.30;64.00;;;;;;5084383;28;20048;-36
2021/08/26 01:55:32;;;;;;;5.82;3.70;;;24.30;64.00;;;;;;5066560;28;20111;-36
2021/08/26 01:57:59;;;;;;;6.50;3.78;;;24.30;63.90;;;;;;5084630;28;20029;-36
2021/08/26 02:00:25;;;;;;;8.82;3.83;;;24.30;64.60;;;;;;5084639;28;20082;-36
2021/08/26 02:02:51;;;;;;;4.82;3.63;;;24.30;63.90;;;;;;5079740;28;20781;-36
2021/08/26 02:05:18;;;;;;;5.45;3.70;;;24.30;63.90;;;;;;5064343;28;20032;-37
2021/08/26 02:07:48;;;;;;;4.28;3.80;;;24.30;63.90;;;;;;5064628;28;20025;-36
2021/08/26 02:10:14;;;;;;;4.25;3.60;;;24.30;63.90;;;;;;5064379;28;20033;-36
2021/08/26 02:12:40;;;;;;;4.70;3.85;;;24.40;63.90;;;;;;5064049;28;20029;-37
2021/08/26 02:15:07;;;;;;;4.40;3.47;;;24.40;63.90;;;;;;5064398;28;20051;-36
2021/08/26 02:17:34;;;;;;;5.15;3.80;;;24.40;64.10;;;;;;5064117;28;20056;-36
2021/08/26 02:20:00;;;;;;;4.65;3.22;;;24.40;64.20;;;;;;5063704;28;20029;-36
2021/08/26 02:22:26;;;;;;;4.00;3.60;;;24.40;64.20;;;;;;5064108;28;20131;-36
2021/08/26 02:24:52;;;;;;;5.65;4.07;;;24.40;64.30;;;;;;5066484;28;20036;-36
2021/08/26 02:27:18;;;;;;;4.45;3.70;;;24.40;64.20;;;;;;5064220;28;20025;-36
2021/08/26 02:29:44;;;;;;;3.63;3.30;;;24.50;64.20;;;;;;5063895;28;20088;-36
2021/08/26 02:32:10;;;;;;;4.38;3.80;;;24.50;64.20;;;;;;5063694;28;20552;-37
2021/08/26 02:34:37;;;;;;;3.97;3.17;;;24.50;64.30;;;;;;5082823;28;20096;-36
2021/08/26 02:37:04;;;;;;;3.87;3.40;;;24.50;64.40;;;;;;5083923;28;20389;-36
2021/08/26 02:39:31;;;;;;;3.85;3.45;;;24.50;64.50;;;;;;5084104;28;20028;-36
2021/08/26 02:41:57;;;;;;;4.65;3.95;;;24.50;64.50;;;;;;5083513;28;20020;-36
2021/08/26 02:44:23;;;;;;;5.25;3.80;;;24.50;64.50;;;;;;5065654;28;20037;-36
2021/08/26 02:46:49;;;;;;;4.10;3.25;;;24.50;64.40;;;;;;5077672;28;20032;-36
2021/08/26 02:49:15;;;;;;;3.95;3.42;;;24.50;64.40;;;;;;5083633;28;20025;-37
2021/08/26 02:51:41;;;;;;;5.07;3.17;;;24.50;64.40;;;;;;5083983;28;20029;-36
2021/08/26 02:54:08;;;;;;;3.70;3.10;;;24.50;64.50;;;;;;5082848;28;20135;-36
2021/08/26 02:56:34;;;;;;;3.78;3.47;;;24.50;64.40;;;;;;5083506;28;20037;-36
2021/08/26 02:59:00;;;;;;;4.05;3.35;;;24.50;64.40;;;;;;5083499;28;20028;-36
2021/08/26 03:01:26;;;;;;;3.78;3.25;;;24.50;64.40;;;;;;5083420;28;20032;-36
2021/08/26 03:03:52;;;;;;;3.88;3.35;;;24.50;64.40;;;;;;5070237;28;20068;-37
2021/08/26 03:06:18;;;;;;;3.60;3.10;;;24.50;64.40;;;;;;5063457;28;20032;-36
2021/08/26 03:08:44;;;;;;;3.35;3.05;;;24.50;64.50;;;;;;5063543;28;20025;-36
2021/08/26 03:11:10;;;;;;;4.60;3.35;;;24.60;64.60;;;;;;5063264;28;20068;-36
2021/08/26 03:13:37;;;;;;;3.53;3.17;;;24.50;64.50;;;;;;5063350;28;20029;-36
2021/08/26 03:16:04;;;;;;;4.13;2.75;;;24.50;64.60;;;;;;5070462;28;20587;-37
2021/08/26 03:18:30;;;;;;;;;;;24.60;64.60;;;;;;5083701;28;20042;-36
2021/08/26 03:20:56;;;;;;;4.32;3.33;;;24.60;64.70;;;;;;5083305;28;19947;-36
2021/08/26 03:23:22;;;;;;;5.03;3.25;;;24.60;64.60;;;;;;5083286;28;20135;-36
2021/08/26 03:25:49;;;;;;;3.95;2.97;;;24.60;64.60;;;;;;5082789;28;20024;-36
2021/08/26 03:28:17;;;;;;;4.35;3.08;;;24.60;64.60;;;;;;5083200;28;20028;-36
2021/08/26 03:30:43;;;;;;;3.65;3.05;;;24.50;64.50;;;;;;5082782;28;20024;-36
2021/08/26 03:33:10;;;;;;;3.77;2.70;;;24.60;64.60;;;;;;5071831;28;20036;-36
2021/08/26 03:35:36;;;;;;;3.17;2.80;;;24.60;64.60;;;;;;5064708;28;20266;-36
2021/08/26 03:38:03;;;;;;;3.35;3.05;;;24.50;64.60;;;;;;5083099;28;20548;-37
2021/08/26 03:40:29;;;;;;;3.90;3.35;;;24.60;64.60;;;;;;5083083;28;20127;-36
2021/08/26 03:42:55;;;;;;;3.50;3.10;;;24.60;64.60;;;;;;5082787;28;20038;-36
2021/08/26 03:45:21;;;;;;;3.50;3.20;;;24.60;64.60;;;;;;5082372;28;20151;-36
2021/08/26 03:47:48;;;;;;;4.22;3.00;;;24.60;64.60;;;;;;5062262;28;20269;-36
2021/08/26 03:50:14;;;;;;;4.03;3.10;;;24.60;64.70;;;;;;5062653;28;20074;-36
2021/08/26 03:52:40;;;;;;;3.70;2.97;;;24.60;64.70;;;;;;5062911;28;20066;-43
2021/08/26 03:55:07;;;;;;;5.57;2.72;;;24.60;64.70;;;;;;5062365;28;20025;-36
2021/08/26 03:57:33;;;;;;;3.30;3.03;;;24.60;64.60;;;;;;5062674;28;20029;-36
2021/08/26 03:59:59;;;;;;;4.13;3.03;;;24.60;64.70;;;;;;5062564;28;20051;-36
2021/08/26 04:02:25;;;;;;;3.28;2.90;;;24.60;64.80;;;;;;5063601;28;20029;-36
2021/08/26 04:04:51;;;;;;;5.80;3.42;;;24.60;64.80;;;;;;5082549;28;20025;-36
2021/08/26 04:07:18;;;;;;;3.65;3.00;;;24.60;64.80;;;;;;5082726;28;20025;-36
2021/08/26 04:09:45;;;;;;;3.60;3.00;;;24.60;64.80;;;;;;5082481;28;20032;-36
2021/08/26 04:12:12;;;;;;;4.55;3.33;;;24.60;64.70;;;;;;5082699;28;20112;-36
2021/08/26 04:14:38;;;;;;;4.35;3.00;;;24.60;64.80;;;;;;5079391;28;20124;-36
2021/08/26 04:17:04;;;;;;;4.93;3.10;;;24.60;64.80;;;;;;5078317;28;20048;-38
2021/08/26 04:19:30;;;;;;;4.03;3.03;;;24.60;64.80;;;;;;5082758;28;20091;-36
2021/08/26 04:21:57;;;;;;;3.50;2.70;;;24.60;64.80;;;;;;5071420;28;20029;-36
2021/08/26 04:24:23;;;;;;;3.20;2.90;;;24.60;64.80;;;;;;5062372;28;20033;-36
2021/08/26 04:26:49;;;;;;;3.40;2.77;;;24.60;64.90;;;;;;5062427;28;20033;-36
2021/08/26 04:29:15;;;;;;;3.42;2.45;;;24.60;64.80;;;;;;5062278;28;20262;-36
2021/08/26 04:31:41;;;;;;;3.53;2.80;;;24.60;64.80;;;;;;5062462;28;20561;-36
2021/08/26 04:34:08;;;;;;;3.15;2.60;;;24.60;64.80;;;;;;5062396;28;20113;-36
2021/08/26 04:36:34;;;;;;;4.05;3.20;;;24.50;64.80;;;;;;5062067;28;20108;-36
2021/08/26 04:39:00;;;;;;;4.30;3.10;;;24.50;64.80;;;;;;5062500;28;20029;-36
2021/08/26 04:41:26;;;;;;;3.47;2.92;;;24.60;64.80;;;;;;5044365;28;20032;-36
2021/08/26 04:43:52;;;;;;;3.40;2.90;;;24.60;64.80;;;;;;5061016;28;20052;-36
2021/08/26 04:46:19;;;;;;;3.42;2.65;;;24.60;64.90;;;;;;5079249;28;20717;-36
2021/08/26 04:48:45;;;;;;;4.57;2.78;;;24.50;64.90;;;;;;5086227;28;20028;-36
2021/08/26 04:51:11;;;;;;;3.58;2.88;;;24.60;65.10;;;;;;5086283;28;20097;-37
2021/08/26 04:53:37;;;;;;;3.03;2.72;;;24.60;65.10;;;;;;5085759;28;20052;-37
2021/08/26 04:56:03;;;;;;;4.30;2.90;;;24.60;64.90;;;;;;5085897;28;20033;-36
2021/08/26 04:58:30;;;;;;;2.60;2.40;;;24.60;64.90;;;;;;5086015;28;20017;-36
2021/08/26 05:00:56;;;;;;;3.30;2.78;;;24.60;64.90;;;;;;5085928;28;20427;-36
2021/08/26 05:03:22;;;;;;;3.03;2.65;;;24.60;64.80;;;;;;5086024;28;20028;-36
2021/08/26 05:05:48;;;;;;;3.67;2.92;;;24.60;64.90;;;;;;5085674;28;20016;-36
2021/08/26 05:08:14;;;;;;;4.05;2.75;;;24.60;64.90;;;;;;5085755;28;20060;-36
2021/08/26 05:10:40;;;;;;;3.47;2.45;;;24.60;64.90;;;;;;5085770;28;20213;-36
2021/08/26 05:13:07;;;;;;;3.00;2.70;;;24.60;64.90;;;;;;5085599;28;20092;-36
2021/08/26 05:15:36;;;;;;;3.58;2.63;;;24.60;64.80;;;;;;5075347;28;20051;-36
2021/08/26 05:18:03;;;;;;;4.20;2.40;;;24.60;64.80;;;;;;5065702;28;20037;-36
2021/08/26 05:20:29;;;;;;;3.20;2.90;;;24.60;64.80;;;;;;5065625;28;20505;-36
2021/08/26 05:22:57;;;;;;;3.40;2.72;;;24.50;65.00;;;;;;5068505;28;20037;-36
2021/08/26 05:25:24;;;;;;;2.88;2.63;;;24.60;65.00;;;;;;5085452;28;20032;-36
2021/08/26 05:27:50;;;;;;;4.30;2.78;;;24.50;65.00;;;;;;5085173;28;20036;-36
2021/08/26 05:30:16;;;;;;;3.70;2.50;;;24.50;65.10;;;;;;5067595;28;20024;-36
2021/08/26 05:32:42;;;;;;;3.22;2.50;;;24.50;65.10;;;;;;5085527;28;20140;-37
2021/08/26 05:35:09;;;;;;;2.75;2.50;;;24.50;65.00;;;;;;5085426;28;20020;-36
2021/08/26 05:37:36;;;;;;;2.70;2.50;;;24.50;65.00;;;;;;5085139;28;20135;-36
2021/08/26 05:40:03;;;;;;;2.58;2.35;;;24.50;64.90;;;;;;5081982;28;20036;-36
2021/08/26 05:42:29;;;;;;;3.08;2.70;;;24.50;64.90;;;;;;5083005;28;20084;-38
2021/08/26 05:44:55;;;;;;;3.42;2.53;;;24.50;64.90;;;;;;5069982;28;20025;-36
2021/08/26 05:47:21;;;;;;;2.88;2.60;;;24.50;65.00;;;;;;5084739;28;20024;-36
2021/08/26 05:49:47;;;;;;;3.17;2.60;;;24.50;65.00;;;;;;5085199;28;20016;-36
2021/08/26 05:52:13;;;;;;;3.55;2.67;;;24.50;65.00;;;;;;5084972;28;20029;-36
2021/08/26 05:54:39;;;;;;;3.17;2.70;;;24.50;64.90;;;;;;5084482;28;20024;-36
2021/08/26 05:57:06;;;;;;;3.80;2.67;;;24.50;64.80;;;;;;5084669;28;20029;-36
2021/08/26 05:59:32;;;;;;;2.88;2.58;;;24.50;64.70;;;;;;5084926;28;20032;-36
2021/08/26 06:02:00;;;;;;;3.50;2.58;;;24.50;64.70;;;;;;5069347;28;20524;-36
2021/08/26 06:04:27;;;;;;;2.67;2.40;;;24.50;64.50;;;;;;5064727;28;20037;-36
2021/08/26 06:06:53;;;;;;;2.70;2.50;;;24.50;64.60;;;;;;5046555;28;20040;-36
2021/08/26 06:09:19;;;;;;;2.97;2.47;;;24.50;64.70;;;;;;5064714;28;20033;-36
2021/08/26 06:11:46;;;;;;;2.80;2.50;;;24.50;64.70;;;;;;5064650;28;20037;-36
2021/08/26 06:14:12;;;;;;;3.85;2.53;;;24.50;64.80;;;;;;5064731;28;20116;-36
2021/08/26 06:16:39;;;;;;;3.58;2.40;;;24.50;64.70;;;;;;5071406;28;20060;-36
2021/08/26 06:19:05;;;;;;;3.20;2.42;;;24.50;64.90;;;;;;5064553;28;20032;-36
2021/08/26 06:21:31;;;;;;;3.45;2.13;;;24.50;64.90;;;;;;5064771;28;20037;-36
2021/08/26 06:23:58;;;;;;;2.30;2.10;;;24.50;65.00;;;;;;5064389;28;20112;-37
2021/08/26 06:26:24;;;;;;;;;;;24.50;64.90;;;;;;5064756;28;20091;-36
2021/08/26 06:28:51;;;;;;;2.53;2.33;;;24.50;64.60;;;;;;5064212;28;19915;-36
2021/08/26 06:31:17;;;;;;;2.63;2.42;;;24.50;64.50;;;;;;5064312;28;20124;-36
2021/08/26 06:33:45;;;;;;;3.10;2.40;;;24.50;64.50;;;;;;5064419;28;20025;-36
2021/08/26 06:36:11;;;;;;;2.97;2.38;;;24.50;64.40;;;;;;5064086;28;20064;-36
2021/08/26 06:38:37;;;;;;;2.92;2.28;;;24.50;64.40;;;;;;5063771;28;20038;-36
2021/08/26 06:41:03;;;;;;;3.15;2.35;;;24.50;64.30;;;;;;5063889;28;20075;-36
2021/08/26 06:43:29;;;;;;;2.97;2.40;;;24.50;64.30;;;;;;5074573;28;20028;-36
2021/08/26 06:45:55;;;;;;;3.38;2.22;;;24.50;64.40;;;;;;5077130;28;20055;-37
2021/08/26 06:48:21;;;;;;;2.85;2.50;;;24.50;64.50;;;;;;5065970;28;20927;-37
2021/08/26 06:50:48;;;;;;;3.00;2.40;;;24.50;64.60;;;;;;5084009;28;20016;-36
2021/08/26 06:53:14;;;;;;;2.80;2.50;;;24.40;64.50;;;;;;5083793;28;20623;-36
2021/08/26 06:55:40;;;;;;;5.57;2.88;;;24.40;64.60;;;;;;5083679;28;20035;-36
2021/08/26 06:58:06;;;;;;;3.03;2.22;;;24.40;64.60;;;;;;5083643;28;20044;-36
2021/08/26 07:00:32;;;;;;;2.38;2.15;;;24.40;64.60;;;;;;5083756;28;20077;-36
2021/08/26 07:02:58;;;;;;;2.78;2.22;;;24.40;64.60;;;;;;5083780;28;20025;-35
2021/08/26 07:05:24;;;;;;;2.40;2.20;;;24.40;64.60;;;;;;5083377;28;20032;-36
2021/08/26 07:07:50;;;;;;;3.03;2.50;;;24.40;64.60;;;;;;5082767;28;20037;-36
2021/08/26 07:10:17;;;;;;;2.33;2.13;;;24.40;64.50;;;;;;5083618;28;20036;-37
2021/08/26 07:12:43;;;;;;;2.50;2.30;;;24.40;64.50;;;;;;5083679;28;20028;-36
2021/08/26 07:15:10;;;;;;;2.58;2.38;;;24.40;64.40;;;;;;5083368;28;20024;-36
2021/08/26 07:17:36;;;;;;;2.85;2.30;;;24.40;64.40;;;;;;5069145;28;20033;-36
2021/08/26 07:20:04;;;;;;;2.78;2.30;;;24.40;64.30;;;;;;5063408;28;20028;-36
2021/08/26 07:22:31;;;;;;;2.50;2.13;;;24.40;64.30;;;;;;5063316;28;20048;-36
2021/08/26 07:24:57;;;;;;;2.72;2.20;;;24.40;64.50;;;;;;5063196;28;20032;-36
2021/08/26 07:27:23;;;;;;;2.38;2.17;;;24.40;64.50;;;;;;5063170;28;20143;-36
2021/08/26 07:29:49;;;;;;;2.53;2.33;;;24.40;64.60;;;;;;5063042;28;20397;-36
2021/08/26 07:32:15;;;;;;;2.45;2.20;;;24.40;64.60;;;;;;5063054;28;20025;-36
2021/08/26 07:34:41;;;;;;;3.13;2.38;;;24.40;64.70;;;;;;5067475;28;20532;-36
2021/08/26 07:37:07;;;;;;;2.88;2.58;;;24.40;64.70;;;;;;5083132;28;20040;-36
2021/08/26 07:39:33;;;;;;;2.80;2.50;;;24.40;64.80;;;;;;5082780;28;20044;-36
2021/08/26 07:42:00;;;;;;;4.07;2.63;;;24.40;64.90;;;;;;5083020;28;20033;-36
2021/08/26 07:44:26;;;;;;;2.47;2.28;;;24.40;64.90;;;;;;5065247;28;20039;-36
2021/08/26 07:46:52;;;;;;;3.10;2.60;;;24.40;64.80;;;;;;5082949;28;20028;-36
2021/08/26 07:49:18;;;;;;;3.05;2.72;;;24.40;65.00;;;;;;5064638;28;20440;-36
2021/08/26 07:51:44;;;;;;;3.38;2.05;;;24.40;65.10;;;;;;5082972;28;20029;-36
2021/08/26 07:54:10;;;;;;;2.50;2.30;;;24.40;65.10;;;;;;5082764;28;20444;-36
2021/08/26 07:56:38;;;;;;;3.58;2.53;;;24.40;65.20;;;;;;5082896;28;20036;-36
2021/08/26 07:59:04;;;;;;;2.63;2.13;;;24.40;65.30;;;;;;5082650;28;20040;-36
2021/08/26 08:01:30;;;;;;;2.90;2.60;;;24.40;65.50;;;;;;5082954;28;20025;-36
2021/08/26 08:03:57;;;;;;;2.60;2.40;;;24.40;65.50;;;;;;5082755;28;20063;-36
2021/08/26 08:06:23;;;;;;;2.90;2.60;;;24.40;65.50;;;;;;5082999;28;20035;-36
2021/08/26 08:08:50;;;;;;;3.15;2.47;;;24.40;65.40;;;;;;5082473;28;20092;-36
2021/08/26 08:11:16;;;;;;;2.50;2.28;;;24.40;65.40;;;;;;5082887;28;20116;-36
2021/08/26 08:13:43;;;;;;;2.75;2.50;;;24.30;65.00;;;;;;5083062;28;20048;-36
2021/08/26 08:16:10;;;;;;;2.35;2.15;;;24.40;64.80;;;;;;5082633;28;20021;-36
2021/08/26 08:18:36;;;;;;;;;;;24.40;64.70;;;;;;5085668;28;20024;-36
2021/08/26 08:21:02;;;;;;;2.63;2.42;;;24.40;64.60;;;;;;5086832;28;19999;-40
2021/08/26 08:23:31;;;;;;;3.42;2.08;;;24.40;64.70;;;;;;5079173;28;20021;-37
2021/08/26 08:25:57;;;;;;;2.75;2.50;;;24.40;64.60;;;;;;5048748;28;20057;-36
2021/08/26 08:28:24;;;;;;;2.55;2.20;;;24.40;64.70;;;;;;5066524;28;20056;-36
2021/08/26 08:30:50;;;;;;;3.60;2.55;;;24.40;64.70;;;;;;5066511;28;20029;-36
2021/08/26 08:33:16;;;;;;;2.70;2.50;;;24.30;64.60;;;;;;5066331;28;20056;-36
2021/08/26 08:35:42;;;;;;;2.65;2.42;;;24.30;64.60;;;;;;5066314;28;20060;-36
2021/08/26 08:38:09;;;;;;;2.88;2.60;;;24.40;64.60;;;;;;5066480;28;20033;-36
2021/08/26 08:40:35;;;;;;;2.45;2.25;;;24.30;64.60;;;;;;5066230;28;20036;-38
2021/08/26 08:43:01;;;;;;;2.42;2.22;;;24.30;64.60;;;;;;5073047;28;20055;-36
2021/08/26 08:45:28;;;;;;;2.63;2.15;;;24.30;64.70;;;;;;5079544;28;20027;-36
2021/08/26 08:47:54;;;;;;;2.58;2.38;;;24.30;64.60;;;;;;5086463;28;20088;-36
2021/08/26 08:50:25;;;;;;;2.85;2.35;;;24.40;64.70;;;;;;5068225;28;20075;-36
2021/08/26 08:52:51;;;;;;;2.33;2.13;;;24.30;64.60;;;;;;5086164;28;20032;-36
2021/08/26 08:55:17;;;;;;;3.05;2.17;;;24.30;64.70;;;;;;5068381;28;20135;-36
2021/08/26 08:57:43;;;;;;;3.28;2.70;;;24.30;64.70;;;;;;5086072;28;20048;-36
2021/08/26 09:00:12;;;;;;;2.67;2.33;;;24.30;64.60;;;;;;5085736;28;20115;-36
2021/08/26 09:02:38;;;;;;;2.85;2.20;;;24.30;64.60;;;;;;5085969;28;20040;-36
2021/08/26 09:05:05;;;;;;;2.72;2.25;;;24.30;64.70;;;;;;5086090;28;20036;-36
2021/08/26 09:07:32;;;;;;;2.35;2.05;;;24.30;64.70;;;;;;5085975;28;20979;-36
2021/08/26 09:09:59;;;;;;;3.00;2.50;;;24.40;64.70;;;;;;5085856;28;20032;-36
2021/08/26 09:12:44;;;;;;;2.00;1.77;;;24.30;64.70;;;;;;5085847;28;20039;-36
2021/08/26 09:15:16;;;;;;;2.83;2.50;;;24.30;64.70;;;;;;5085801;28;20035;-36
2021/08/26 09:17:44;;;;;;;2.95;2.63;;;24.30;64.70;;;;;;5084131;28;20643;-36
2021/08/26 09:20:15;;;;;;;2.58;2.38;;;24.30;64.90;;;;;;5083848;28;20048;-36
2021/08/26 09:22:41;;;;;;;3.05;2.58;;;24.30;64.80;;;;;;5068341;28;20058;-36
2021/08/26 09:25:09;;;;;;;2.72;2.53;;;24.30;64.90;;;;;;5085666;28;20024;-36
2021/08/26 09:27:38;;;;;;;3.67;2.50;;;24.30;65.00;;;;;;5085664;28;20397;-36
2021/08/26 09:30:12;;;;;;;2.67;2.47;;;24.30;65.10;;;;;;5076577;28;20750;-36
2021/08/26 09:32:42;;;;;;;2.58;2.38;;;24.30;65.10;;;;;;5065493;28;20025;-36
2021/08/26 09:35:19;;;;;;;2.72;2.53;;;24.30;65.00;;;;;;5065400;28;20040;-35
2021/08/26 09:37:55;;;;;;;2.60;2.40;;;24.30;64.90;;;;;;5065304;28;20033;-36
2021/08/26 09:40:26;;;;;;;2.45;2.10;;;24.30;64.90;;;;;;5065176;28;20013;-36
2021/08/26 09:43:03;;;;;;;2.15;1.95;;;24.30;65.00;;;;;;5070623;28;20032;-36
2021/08/26 09:45:33;;;;;;;2.53;2.33;;;24.30;64.90;;;;;;5078417;28;20028;-36
2021/08/26 09:48:15;;;;;;;2.55;2.35;;;24.30;64.90;;;;;;5085274;28;20028;-36
2021/08/26 09:50:49;;;;;;;3.88;2.40;;;24.30;64.90;;;;;;5085014;28;20032;-36
2021/08/26 09:53:19;;;;;;;2.53;2.33;;;24.30;65.00;;;;;;5084927;28;20053;-35
2021/08/26 09:56:04;;;;;;;3.15;2.70;;;24.30;65.70;;;;;;5084990;28;20028;-36
2021/08/26 09:58:36;;;;;;;2.45;2.22;;;24.30;64.90;;;;;;5084820;28;20060;-36
2021/08/26 10:01:06;;;;;;;2.65;2.45;;;24.30;64.90;;;;;;5084684;28;20193;-36
2021/08/26 10:03:33;;;;;;;2.72;2.53;;;24.30;65.00;;;;;;5084912;28;20032;-36
2021/08/26 10:05:59;;;;;;;2.45;2.25;;;24.30;65.10;;;;;;5084993;28;20047;-37
2021/08/26 10:08:25;;;;;;;3.03;2.72;;;24.30;65.20;;;;;;5084864;28;20029;-36
2021/08/26 10:10:51;;;;;;;4.00;2.75;;;24.30;65.20;;;;;;5066720;28;20078;-36
2021/08/26 10:13:18;;;;;;;2.88;2.63;;;24.30;65.20;;;;;;5066761;28;20020;-36
2021/08/26 10:15:44;;;;;;;3.08;2.47;;;24.30;65.20;;;;;;5066599;28;20025;-36
2021/08/26 10:18:10;;;;;;;2.78;2.53;;;24.30;65.10;;;;;;5084630;28;20096;-36
2021/08/26 10:20:36;;;;;;;3.10;2.80;;;24.30;65.00;;;;;;5066381;28;20020;-36
2021/08/26 10:23:03;;;;;;;2.40;2.20;;;24.30;65.10;;;;;;5066523;28;20126;-36
2021/08/26 10:25:29;;;;;;;2.80;2.47;;;24.30;65.10;;;;;;5084374;28;20040;-36
2021/08/26 10:27:55;;;;;;;2.88;2.58;;;24.30;65.20;;;;;;5081347;28;20269;-36
2021/08/26 10:30:28;;;;;;;2.80;2.60;;;24.30;65.20;;;;;;5049769;28;20089;-36
2021/08/26 10:33:10;;;;;;;3.10;2.80;;;24.30;65.20;;;;;;5084088;28;20078;-36
2021/08/26 10:36:02;;;;;;;2.72;2.50;;;24.30;65.10;;;;;;5084254;28;20028;-36
2021/08/26 10:38:36;;;;;;;3.00;2.60;;;24.30;65.10;;;;;;5084309;28;20032;-36
2021/08/26 10:41:27;;;;;;;2.45;2.25;;;24.30;65.10;;;;;;5083722;28;20025;-36
2021/08/26 10:43:59;;;;;;;2.85;2.55;;;24.30;65.20;;;;;;5070247;28;20454;-36
2021/08/26 10:46:54;;;;;;;4.25;2.70;;;24.30;65.30;;;;;;5081214;28;20024;-36
2021/08/26 10:49:21;;;;;;;2.47;2.28;;;24.30;65.40;;;;;;5084176;28;20032;-36
2021/08/26 10:51:49;;;;;;;2.53;2.33;;;24.30;65.40;;;;;;5083768;28;20025;-36
2021/08/26 10:54:34;;;;;;;2.63;2.42;;;24.30;65.40;;;;;;5083536;28;20057;-36
2021/08/26 10:57:32;;;;;;;3.30;2.90;;;24.30;65.50;;;;;;5083558;28;20067;-36
2021/08/26 10:59:58;;;;;;;3.05;2.75;;;24.30;65.40;;;;;;5001777;28;20069;-36
2021/08/26 11:02:41;;;;;;;3.22;2.92;;;24.30;65.40;;;;;;5001219;28;20034;-36
2021/08/26 11:05:47;;;;;;;2.95;2.65;;;24.30;65.40;;;;;;4985433;28;20057;-36
2021/08/26 11:08:29;;;;;;;2.97;2.70;;;24.30;65.40;;;;;;4943593;29;20064;-36
2021/08/26 11:10:56;;;;;;;2.95;2.58;;;24.30;65.40;;;;;;4943289;29;20036;-36
2021/08/26 11:13:32;;;;;;;2.53;2.33;;;24.30;65.40;;;;;;4943436;29;20612;-36
2021/08/26 11:16:24;;;;;;;2.95;2.42;;;24.30;65.40;;;;;;4943182;29;20047;-36
2021/08/26 11:18:54;;;;;;;2.85;2.55;;;24.30;65.40;;;;;;4938292;29;20131;-36
2021/08/26 11:21:52;;;;;;;2.90;2.63;;;24.30;65.40;;;;;;4927200;29;20114;-36
2021/08/26 11:24:26;;;;;;;2.80;2.60;;;24.30;65.40;;;;;;4935541;29;20044;-36
2021/08/26 11:26:59;;;;;;;2.90;2.60;;;24.30;65.60;;;;;;4943271;29;20040;-36
2021/08/26 11:29:25;;;;;;;2.78;2.58;;;24.30;65.60;;;;;;4943188;29;20543;-36
2021/08/26 11:31:54;;;;;;;3.17;2.70;;;24.30;65.60;;;;;;4942467;29;20039;-36
2021/08/26 11:34:40;;;;;;;3.30;3.00;;;24.30;65.60;;;;;;4943233;29;20477;-36
2021/08/26 11:37:10;;;;;;;2.80;2.60;;;24.30;65.70;;;;;;4981652;28;20428;-36
2021/08/26 11:39:39;;;;;;;2.67;2.47;;;24.30;66.30;;;;;;5044641;28;20035;-36
2021/08/26 11:42:11;;;;;;;3.50;2.90;;;24.30;65.50;;;;;;5062744;28;20029;-36
2021/08/26 11:44:37;;;;;;;3.05;2.75;;;24.30;65.50;;;;;;5082847;28;20020;-36
2021/08/26 11:47:04;;;;;;;3.20;2.90;;;24.30;65.50;;;;;;5082653;28;20111;-37
2021/08/26 11:49:40;;;;;;;3.20;2.83;;;24.30;65.50;;;;;;5083087;28;20028;-35
2021/08/26 11:52:07;;;;;;;2.90;2.70;;;24.30;65.50;;;;;;5082234;28;20075;-36
2021/08/26 11:54:47;;;;;;;3.22;2.92;;;24.30;65.70;;;;;;5082647;28;20041;-36
2021/08/26 11:57:14;;;;;;;3.30;3.00;;;24.30;65.60;;;;;;5082687;28;20037;-36
2021/08/26 11:59:40;;;;;;;;;;;24.30;65.50;;;;;;5065153;28;20543;-36
2021/08/26 12:02:16;;;;;;;3.03;2.72;;;24.30;65.50;;;;;;5064332;28;19911;-36
2021/08/26 12:04:44;;;;;;;2.95;2.60;;;24.30;65.60;;;;;;5082926;28;20055;-37
2021/08/26 12:07:20;;;;;;;3.08;2.78;;;24.30;65.60;;;;;;5082623;28;20505;-36
2021/08/26 12:09:46;;;;;;;3.00;2.70;;;24.30;65.70;;;;;;5082786;28;20497;-36
2021/08/26 12:12:13;;;;;;;3.00;2.72;;;24.30;65.70;;;;;;5082335;28;20035;-36
2021/08/26 12:14:39;;;;;;;4.80;2.80;;;24.30;65.70;;;;;;5082721;28;20025;-36
2021/08/26 12:17:16;;;;;;;3.40;2.72;;;24.30;65.70;;;;;;5082387;28;20037;-36
2021/08/26 12:19:43;;;;;;;3.33;2.92;;;24.30;65.70;;;;;;5082067;28;20090;-36
2021/08/26 12:22:12;;;;;;;3.30;3.00;;;24.30;65.60;;;;;;5064063;28;20067;-36
2021/08/26 12:24:51;;;;;;;3.28;2.80;;;24.30;65.70;;;;;;5082472;28;20037;-36
2021/08/26 12:27:18;;;;;;;2.97;2.42;;;24.30;65.70;;;;;;5063813;28;20030;-36
2021/08/26 12:29:46;;;;;;;2.80;2.60;;;24.30;65.70;;;;;;5080496;28;20033;-36
2021/08/26 12:32:35;;;;;;;3.40;3.10;;;24.30;65.70;;;;;;5082091;28;20052;-43
2021/08/26 12:35:25;;;;;;;2.90;2.70;;;24.30;65.70;;;;;;5064278;28;20029;-36
2021/08/26 12:37:59;;;;;;;3.35;3.05;;;24.30;65.70;;;;;;5082273;28;20032;-36
2021/08/26 12:40:30;;;;;;;2.95;2.75;;;24.30;65.70;;;;;;5064287;28;20142;-36
2021/08/26 12:42:58;;;;;;;3.83;2.97;;;24.30;65.70;;;;;;5082085;28;20679;-36
2021/08/26 12:45:24;;;;;;;3.55;2.92;;;24.30;65.70;;;;;;5082432;28;20088;-36
2021/08/26 12:47:50;;;;;;;3.70;2.90;;;24.20;65.70;;;;;;5082323;28;20021;-36
2021/08/26 12:50:30;;;;;;;3.40;3.10;;;24.20;65.70;;;;;;5064279;28;20032;-36
2021/08/26 12:52:56;;;;;;;3.10;2.88;;;24.30;65.90;;;;;;5081649;28;20048;-36
2021/08/26 12:55:22;;;;;;;2.97;2.72;;;24.30;65.90;;;;;;5082240;28;20024;-36
2021/08/26 12:57:48;;;;;;;3.70;3.15;;;24.20;65.70;;;;;;5064366;28;20077;-36
2021/08/26 13:00:40;;;;;;;2.80;2.60;;;24.30;65.80;;;;;;5082317;28;20055;-36